Time;durP1;ratioP1;P1;durP2;ratioP2;P2;SDS_P1;SDS_P2;PMS_P1;PMS_P2;Temp;Humidity;BMP_temperature;BMP_pressure;BME280_temperature;BME280_humidity;BME280_pressure;Samples;Min_cycle;Max_cycle;Signal;HPM_P1;HPM_P2
2024/03/26 00:02:25;;;;;;;;;;;;;;;15.16;48.02;100148.88;5037002;28;1185;-52
2024/03/26 00:04:51;;;;;;;;;;;;;;;16.60;44.81;100161.53;5036864;28;1133;-52
2024/03/26 00:07:17;;;;;;;;;;;;;;;17.33;43.17;100160.78;5036769;28;1965;-53
2024/03/26 00:09:42;;;;;;;;;;;;;;;16.39;45.05;100160.53;5036784;28;1189;-52
2024/03/26 00:12:08;;;;;;;;;;;;;;;15.86;46.09;100164.69;5036484;28;911;-54
2024/03/26 00:14:34;;;;;;;;;;;;;;;15.58;47.15;100164.19;5036599;28;976;-51
2024/03/26 00:16:59;;;;;;;;;;;;;;;15.39;47.28;100162.16;5036891;28;1258;-52
2024/03/26 00:19:25;;;;;;;;;;;;;;;15.15;47.89;100166.56;5036691;28;1148;-53
2024/03/26 00:21:50;;;;;;;;;;;;;;;16.01;46.18;100173.28;5036571;28;1210;-52
2024/03/26 00:24:16;;;;;;;;;;;;;;;17.16;43.54;100172.88;5036016;28;1083;-53
2024/03/26 00:26:41;;;;;;;;;;;;;;;17.26;42.87;100180.91;5036354;28;1923;-52
2024/03/26 00:29:07;;;;;;;;;;;;;;;16.35;44.84;100182.13;5036244;28;1112;-53
2024/03/26 00:31:35;;;;;;;;;;;;;;;15.91;45.94;100185.56;5036442;28;1028;-52
2024/03/26 00:34:01;;;;;;;;;;;;;;;15.62;46.82;100181.56;5035912;28;1098;-51
2024/03/26 00:36:26;;;;;;;;;;;;;;;15.41;47.22;100184.91;5036160;28;1013;-51
2024/03/26 00:38:52;;;;;;;;;;;;;;;15.26;47.37;100194.91;5036415;28;1028;-48
2024/03/26 00:41:18;;;;;;;;;;;;;;;15.32;47.38;100188.28;5036427;28;1115;-49
2024/03/26 00:43:43;;;;;;;;;;;;;;;16.82;44.03;100194.25;5036208;28;1095;-49
2024/03/26 00:46:09;;;;;;;;;;;;;;;17.54;42.48;100190.97;5036102;28;1032;-50
2024/03/26 00:48:34;;;;;;;;;;;;;;;16.55;44.12;100192.94;5035742;28;1914;-50
2024/03/26 00:51:00;;;;;;;;;;;;;;;15.95;45.83;100194.13;5036215;28;1159;-51
2024/03/26 00:53:26;;;;;;;;;;;;;;;15.64;46.76;100192.91;5036592;28;1071;-52
2024/03/26 00:55:52;;;;;;;;;;;;;;;15.48;46.69;100195.88;5036127;28;1086;-51
2024/03/26 00:58:17;;;;;;;;;;;;;;;15.32;47.49;100196.22;5036192;28;1039;-50
2024/03/26 01:00:43;;;;;;;;;;;;;;;15.10;47.53;100197.03;5035785;28;912;-53
2024/03/26 01:03:08;;;;;;;;;;;;;;;16.39;45.02;100208.31;5036125;28;1222;-49
2024/03/26 01:05:34;;;;;;;;;;;;;;;17.37;42.74;100218.06;5036055;28;1072;-49
2024/03/26 01:08:00;;;;;;;;;;;;;;;16.84;43.44;100222.41;5036049;28;1910;-49
2024/03/26 01:10:25;;;;;;;;;;;;;;;16.12;45.03;100225.47;5036255;28;1114;-51
2024/03/26 01:12:51;;;;;;;;;;;;;;;15.78;46.21;100217.50;5035842;28;1110;-51
2024/03/26 01:15:16;;;;;;;;;;;;;;;15.49;46.46;100226.75;5035868;28;1226;-49
2024/03/26 01:17:42;;;;;;;;;;;;;;;15.30;46.93;100225.50;5035778;28;1140;-50
2024/03/26 01:20:08;;;;;;;;;;;;;;;15.16;47.53;100229.19;5035893;28;1191;-50
2024/03/26 01:22:33;;;;;;;;;;;;;;;15.53;46.70;100227.38;5035765;28;1028;-51
2024/03/26 01:24:59;;;;;;;;;;;;;;;16.91;43.62;100229.84;5035467;28;1203;-50
2024/03/26 01:27:24;;;;;;;;;;;;;;;17.10;42.93;100232.69;5036058;28;1902;-49
2024/03/26 01:29:50;;;;;;;;;;;;;;;16.18;45.00;100234.78;5036039;28;1119;-50
2024/03/26 01:32:16;;;;;;;;;;;;;;;15.78;45.71;100226.28;5035950;28;1017;-49
2024/03/26 01:34:41;;;;;;;;;;;;;;;15.60;46.41;100231.22;5035870;28;1235;-48
2024/03/26 01:37:07;;;;;;;;;;;;;;;15.33;47.12;100239.50;5034991;28;1091;-49
2024/03/26 01:39:32;;;;;;;;;;;;;;;15.97;46.03;100234.59;5038920;28;1231;-49
2024/03/26 01:41:58;;;;;;;;;;;;;;;17.19;42.98;100248.84;5039639;28;1043;-48
2024/03/26 01:44:23;;;;;;;;;;;;;;;16.86;43.30;100247.03;5038992;28;1080;-49
2024/03/26 01:46:49;;;;;;;;;;;;;;;16.11;44.88;100236.22;5039298;28;1902;-48
2024/03/26 01:49:14;;;;;;;;;;;;;;;15.80;45.70;100242.06;5039289;28;1242;-52
2024/03/26 01:51:40;;;;;;;;;;;;;;;15.57;46.63;100241.19;5039754;28;1067;-49
2024/03/26 01:54:06;;;;;;;;;;;;;;;15.30;46.87;100240.53;5021829;28;1099;-50
2024/03/26 01:56:31;;;;;;;;;;;;;;;15.16;47.35;100238.97;5039104;28;1056;-50
2024/03/26 01:58:57;;;;;;;;;;;;;;;16.63;44.22;100257.72;5021605;28;1143;-50
2024/03/26 02:01:23;;;;;;;;;;;;;;;17.40;42.18;100258.66;5021068;28;1095;-49
2024/03/26 02:03:48;;;;;;;;;;;;;;;16.33;44.25;100267.19;5021724;28;1537;-52
2024/03/26 02:06:14;;;;;;;;;;;;;;;15.90;45.26;100271.38;5021333;28;1110;-50
2024/03/26 02:08:40;;;;;;;;;;;;;;;15.62;46.01;100266.41;5021502;28;1906;-50
2024/03/26 02:11:05;;;;;;;;;;;;;;;15.45;46.56;100269.53;5021244;28;1138;-51
2024/03/26 02:13:31;;;;;;;;;;;;;;;15.21;47.23;100263.31;5038738;28;1131;-50
2024/03/26 02:15:57;;;;;;;;;;;;;;;16.22;44.94;100260.09;5039033;28;1131;-52
2024/03/26 02:18:22;;;;;;;;;;;;;;;17.28;42.71;100253.41;5038305;28;1167;-48
2024/03/26 02:20:48;;;;;;;;;;;;;;;16.70;43.65;100263.38;5038707;28;1099;-50
2024/03/26 02:23:14;;;;;;;;;;;;;;;16.00;45.22;100272.38;5038575;28;1145;-50
2024/03/26 02:25:39;;;;;;;;;;;;;;;15.73;45.71;100268.22;5021105;28;928;-48
2024/03/26 02:28:06;;;;;;;;;;;;;;;15.46;46.25;100274.72;5038538;28;1910;-50
2024/03/26 02:30:32;;;;;;;;;;;;;;;15.25;47.24;100279.78;5020811;28;1123;-50
2024/03/26 02:32:57;;;;;;;;;;;;;;;15.21;47.29;100283.66;5038246;28;1062;-51
2024/03/26 02:35:23;;;;;;;;;;;;;;;16.73;43.96;100286.19;5038573;28;1183;-51
2024/03/26 02:37:50;;;;;;;;;;;;;;;17.36;42.37;100287.31;5020027;28;1037;-51
2024/03/26 02:40:15;;;;;;;;;;;;;;;16.33;44.76;100284.94;5038071;28;1111;-51
2024/03/26 02:42:41;;;;;;;;;;;;;;;15.84;45.43;100293.09;5038142;28;1175;-48
2024/03/26 02:45:07;;;;;;;;;;;;;;;15.62;46.15;100292.06;5020038;28;1153;-51
2024/03/26 02:47:32;;;;;;;;;;;;;;;15.41;46.35;100295.41;5020277;28;1910;-51
2024/03/26 02:49:58;;;;;;;;;;;;;;;15.20;47.21;100289.91;5037384;28;904;-51
2024/03/26 02:52:23;;;;;;;;;;;;;;;15.43;46.91;100288.19;5037727;28;1080;-47
2024/03/26 02:54:49;;;;;;;;;;;;;;;16.91;43.18;100298.94;5038221;28;1103;-50
2024/03/26 02:57:15;;;;;;;;;;;;;;;17.30;42.13;100295.81;5038125;28;1064;-50
2024/03/26 02:59:40;;;;;;;;;;;;;;;16.32;44.35;100301.81;5037449;28;1049;-51
2024/03/26 03:02:06;;;;;;;;;;;;;;;15.85;45.65;100298.25;5037451;28;1091;-50
2024/03/26 03:04:31;;;;;;;;;;;;;;;15.55;46.39;100308.47;5020601;28;1227;-49
2024/03/26 03:06:57;;;;;;;;;;;;;;;15.39;46.76;100313.22;5037578;28;1910;-50
2024/03/26 03:09:22;;;;;;;;;;;;;;;15.21;47.06;100307.50;5037828;28;1134;-51
2024/03/26 03:11:48;;;;;;;;;;;;;;;16.18;45.12;100321.50;5037499;28;1440;-51
2024/03/26 03:14:13;;;;;;;;;;;;;;;17.27;42.49;100312.84;5037654;28;845;-50
2024/03/26 03:16:39;;;;;;;;;;;;;;;16.65;43.48;100313.34;5037576;28;1075;-50
2024/03/26 03:19:04;;;;;;;;;;;;;;;16.09;44.57;100320.38;5037287;28;1147;-47
2024/03/26 03:21:30;;;;;;;;;;;;;;;15.66;45.61;100333.31;5037286;28;1122;-49
2024/03/26 03:23:56;;;;;;;;;;;;;;;15.46;46.40;100332.16;5019582;28;1103;-49
2024/03/26 03:26:21;;;;;;;;;;;;;;;15.24;46.49;100339.91;5037151;28;1127;-51
2024/03/26 03:28:47;;;;;;;;;;;;;;;15.15;47.05;100348.53;5036974;28;1903;-49
2024/03/26 03:31:12;;;;;;;;;;;;;;;15.88;45.66;100351.06;5037312;28;1096;-50
2024/03/26 03:33:38;;;;;;;;;;;;;;;17.09;42.76;100355.06;5037672;28;1114;-50
2024/03/26 03:36:04;;;;;;;;;;;;;;;17.06;42.49;100340.22;5036909;28;1146;-50
2024/03/26 03:38:29;;;;;;;;;;;;;;;16.21;44.46;100353.94;5036706;28;857;-49
2024/03/26 03:40:55;;;;;;;;;;;;;;;15.84;45.39;100354.09;5036862;28;1179;-47
2024/03/26 03:43:20;;;;;;;;;;;;;;;15.56;46.06;100354.38;5037219;28;1156;-49
2024/03/26 03:45:46;;;;;;;;;;;;;;;15.30;46.81;100354.50;5036849;28;1075;-48
2024/03/26 03:48:11;;;;;;;;;;;;;;;15.15;47.08;100361.78;5019252;28;1965;-50
2024/03/26 03:50:37;;;;;;;;;;;;;;;16.61;43.71;100371.22;5036422;28;1067;-50
2024/03/26 03:53:03;;;;;;;;;;;;;;;17.36;41.91;100369.75;5037348;28;1055;-49
2024/03/26 03:55:29;;;;;;;;;;;;;;;16.33;44.32;100385.81;5036581;28;1071;-50
2024/03/26 03:57:55;;;;;;;;;;;;;;;15.83;45.11;100378.94;5036918;28;1195;-51
2024/03/26 04:00:20;;;;;;;;;;;;;;;15.60;45.74;100371.75;5035279;28;1184;-53
2024/03/26 04:02:46;;;;;;;;;;;;;;;15.34;46.75;100374.53;5036482;28;849;-46
2024/03/26 04:05:11;;;;;;;;;;;;;;;15.24;46.87;100379.66;5036218;28;1154;-51
2024/03/26 04:07:37;;;;;;;;;;;;;;;15.12;46.96;100372.59;5019033;28;1985;-51
2024/03/26 04:10:03;;;;;;;;;;;;;;;16.64;43.66;100386.91;5036211;28;1138;-50
2024/03/26 04:12:29;;;;;;;;;;;;;;;17.04;42.58;100373.19;5036565;28;1044;-51
2024/03/26 04:14:55;;;;;;;;;;;;;;;16.15;44.57;100370.31;5035572;28;1134;-50
2024/03/26 04:17:20;;;;;;;;;;;;;;;15.67;45.57;100375.63;5038430;28;2681;-49
2024/03/26 04:19:46;;;;;;;;;;;;;;;15.40;45.96;100375.88;5022813;28;1911;-52
2024/03/26 04:22:11;;;;;;;;;;;;;;;15.19;46.99;100381.81;5055004;28;1895;-49
2024/03/26 04:24:37;;;;;;;;;;;;;;;15.11;46.63;100392.13;5039448;28;1978;-51
2024/03/26 04:27:02;;;;;;;;;;;;;;;16.19;44.71;100398.34;5036945;28;1975;-49
2024/03/26 04:29:28;;;;;;;;;;;;;;;17.23;42.32;100392.00;5041496;28;2044;-49
2024/03/26 04:31:54;;;;;;;;;;;;;;;16.68;43.27;100399.94;5036203;28;1115;-51
2024/03/26 04:34:19;;;;;;;;;;;;;;;15.99;44.70;100399.84;5036176;28;1028;-49
2024/03/26 04:36:45;;;;;;;;;;;;;;;15.67;45.63;100409.25;5036130;28;1144;-49
2024/03/26 04:39:11;;;;;;;;;;;;;;;15.38;46.26;100404.31;5035592;28;890;-49
2024/03/26 04:41:37;;;;;;;;;;;;;;;15.26;46.61;100400.75;5036450;28;1003;-49
2024/03/26 04:44:02;;;;;;;;;;;;;;;15.18;47.09;100403.97;5036035;28;1012;-51
2024/03/26 04:46:28;;;;;;;;;;;;;;;16.68;43.40;100407.91;5036193;28;1152;-50
2024/03/26 04:48:53;;;;;;;;;;;;;;;17.44;41.53;100414.28;5035933;28;1976;-50
2024/03/26 04:51:20;;;;;;;;;;;;;;;16.39;43.47;100420.69;5038126;28;1173;-57
2024/03/26 04:53:47;;;;;;;;;;;;;;;15.91;45.07;100426.94;5055403;28;1237;-55
2024/03/26 04:56:13;;;;;;;;;;;;;;;15.59;45.54;100435.50;5018189;28;1124;-56
2024/03/26 04:58:39;;;;;;;;;;;;;;;15.35;46.00;100434.53;5037423;28;928;-56
2024/03/26 05:01:04;;;;;;;;;;;;;;;15.88;43.77;100429.84;5025670;28;3048;-50
2024/03/26 05:03:30;;;;;;;;;;;;;;;16.70;42.09;100449.28;5035352;28;1029;-57
2024/03/26 05:05:55;;;;;;;;;;;;;;;17.57;39.93;100448.69;5035595;28;1145;-56
2024/03/26 05:08:21;;;;;;;;;;;;;;;17.24;40.10;100441.56;5035328;28;1910;-57
2024/03/26 05:10:47;;;;;;;;;;;;;;;17.57;40.85;100454.88;5035805;28;991;-58
2024/03/26 05:13:13;;;;;;;;;;;;;;;15.99;43.76;100452.91;5038571;28;1077;-55
2024/03/26 05:15:39;;;;;;;;;;;;;;;16.22;44.29;100455.63;5039332;28;849;-57
2024/03/26 05:18:05;;;;;;;;;;;;;;;16.27;43.60;100456.97;5039597;28;1432;-56
2024/03/26 05:20:30;;;;;;;;;;;;;;;15.26;45.72;100467.84;5039783;28;1148;-55
2024/03/26 05:22:56;;;;;;;;;;;;;;;15.09;45.89;100471.72;5039426;28;1040;-57
2024/03/26 05:25:21;;;;;;;;;;;;;;;14.91;45.49;100477.34;5039647;28;1115;-60
2024/03/26 05:27:47;;;;;;;;;;;;;;;16.13;44.81;100487.22;5038826;28;1909;-56
2024/03/26 05:30:12;;;;;;;;;;;;;;;16.79;43.12;100497.34;5039233;28;2866;-57
2024/03/26 05:32:38;;;;;;;;;;;;;;;15.46;45.89;100505.31;5039189;28;1138;-54
2024/03/26 05:35:04;;;;;;;;;;;;;;;15.15;45.62;100512.81;5039192;28;1445;-56
2024/03/26 05:37:30;;;;;;;;;;;;;;;14.92;45.79;100518.78;5039089;28;1168;-57
2024/03/26 05:39:55;;;;;;;;;;;;;;;16.09;45.04;100517.59;5037253;28;1132;-55
2024/03/26 05:42:21;;;;;;;;;;;;;;;17.54;42.64;100526.94;5027754;28;1408;-54
2024/03/26 05:44:47;;;;;;;;;;;;;;;15.87;45.30;100523.63;5034631;28;1135;-55
2024/03/26 05:47:12;;;;;;;;;;;;;;;15.31;46.12;100536.44;5038746;28;1890;-54
2024/03/26 05:49:38;;;;;;;;;;;;;;;15.10;46.00;100536.16;5039170;28;1028;-52
2024/03/26 05:52:04;;;;;;;;;;;;;;;16.76;44.43;100535.63;5038349;28;996;-56
2024/03/26 05:54:30;;;;;;;;;;;;;;;15.53;46.35;100546.31;5035303;28;1141;-58
2024/03/26 05:56:56;;;;;;;;;;;;;;;15.17;46.36;100556.81;5027031;28;996;-57
2024/03/26 05:59:22;;;;;;;;;;;;;;;14.95;45.69;100557.44;5035482;28;2383;-56
2024/03/26 06:01:47;;;;;;;;;;;;;;;16.28;45.32;100559.53;5029459;28;1330;-53
2024/03/26 06:04:13;;;;;;;;;;;;;;;17.58;42.46;100568.25;5031179;28;1235;-53
2024/03/26 06:06:39;;;;;;;;;;;;;;;15.78;45.93;100573.72;5035050;28;1214;-52
2024/03/26 06:09:04;;;;;;;;;;;;;;;15.32;46.19;100577.00;5028742;28;1985;-48
2024/03/26 06:11:30;;;;;;;;;;;;;;;15.11;45.99;100578.44;5038866;28;1147;-54
2024/03/26 06:13:55;;;;;;;;;;;;;;;16.16;45.19;100569.25;5020780;28;1136;-55
2024/03/26 06:16:22;;;;;;;;;;;;;;;15.31;46.43;100576.19;5035204;28;1046;-49
2024/03/26 06:18:47;;;;;;;;;;;;;;;15.70;46.44;100584.03;5038518;28;1082;-54
2024/03/26 06:21:13;;;;;;;;;;;;;;;16.91;43.75;100580.56;5038595;28;1068;-54
2024/03/26 06:23:38;;;;;;;;;;;;;;;15.78;45.03;100576.38;5037759;28;1059;-57
2024/03/26 06:26:04;;;;;;;;;;;;;;;16.55;44.54;100575.31;5037978;28;1095;-54
2024/03/26 06:28:30;;;;;;;;;;;;;;;16.39;44.05;100584.44;5038314;28;1988;-56
2024/03/26 06:30:55;;;;;;;;;;;;;;;15.66;45.08;100590.53;5036539;28;2688;-56
2024/03/26 06:33:21;;;;;;;;;;;;;;;15.28;45.33;100593.13;5038223;28;1368;-57
2024/03/26 06:35:46;;;;;;;;;;;;;;;16.88;43.35;100589.63;5053456;28;1445;-55
2024/03/26 06:38:12;;;;;;;;;;;;;;;16.15;44.55;100585.28;5041712;28;1051;-58
2024/03/26 06:40:38;;;;;;;;;;;;;;;15.51;45.86;100595.13;5044196;28;1055;-58
2024/03/26 06:43:04;;;;;;;;;;;;;;;15.14;46.37;100604.72;5037170;28;1168;-59
2024/03/26 06:45:30;;;;;;;;;;;;;;;17.33;42.95;100607.44;5037862;28;1056;-61
2024/03/26 06:47:55;;;;;;;;;;;;;;;15.98;45.54;100613.03;5038114;28;1910;-58
2024/03/26 06:50:21;;;;;;;;;;;;;;;15.35;46.00;100609.44;5037447;28;1016;-59
2024/03/26 06:52:49;;;;;;;;;;;;;;;15.94;46.03;100607.09;5038270;28;1075;-57
2024/03/26 06:55:16;;;;;;;;;;;;;;;16.37;44.46;100604.94;5037622;28;1103;-59
2024/03/26 06:57:42;;;;;;;;;;;;;;;15.54;45.83;100608.16;5038122;28;1198;-58
2024/03/26 07:00:08;;;;;;;;;;;;;;;15.30;45.86;100615.09;5037248;28;2177;-61
2024/03/26 07:02:35;;;;;;;;;;;;;;;16.40;45.14;100599.38;5037229;28;980;-54
2024/03/26 07:05:01;;;;;;;;;;;;;;;16.32;44.85;100593.78;5037664;28;1060;-54
2024/03/26 07:07:27;;;;;;;;;;;;;;;15.52;46.31;100602.13;5037636;28;1918;-48
2024/03/26 07:09:52;;;;;;;;;;;;;;;15.97;46.15;100600.72;5037447;28;1107;-51
2024/03/26 07:12:18;;;;;;;;;;;;;;;17.79;42.20;100595.94;5037984;28;1151;-54
2024/03/26 07:14:44;;;;;;;;;;;;;;;16.31;45.10;100592.13;5036802;28;1163;-54
2024/03/26 07:17:09;;;;;;;;;;;;;;;15.62;46.38;100586.41;5037153;28;1144;-55
2024/03/26 07:19:35;;;;;;;;;;;;;;;15.38;46.05;100590.69;5037522;28;1127;-53
2024/03/26 07:22:01;;;;;;;;;;;;;;;17.20;43.61;100590.78;5037566;28;1016;-56
2024/03/26 07:24:27;;;;;;;;;;;;;;;15.98;45.79;100590.03;5037223;28;1091;-54
2024/03/26 07:26:53;;;;;;;;;;;;;;;15.43;46.15;100599.16;5036877;28;1055;-47
2024/03/26 07:29:18;;;;;;;;;;;;;;;15.17;45.87;100593.03;5032303;28;2486;-53
2024/03/26 07:31:44;;;;;;;;;;;;;;;16.55;45.02;100593.91;5037390;28;1055;-50
2024/03/26 07:34:09;;;;;;;;;;;;;;;16.30;44.90;100598.41;5037116;28;1135;-50
2024/03/26 07:36:35;;;;;;;;;;;;;;;15.48;46.14;100609.44;5036945;28;1229;-51
2024/03/26 07:39:00;;;;;;;;;;;;;;;15.28;46.27;100610.84;5037541;28;1127;-51
2024/03/26 07:41:26;;;;;;;;;;;;;;;15.15;45.66;100613.50;5037111;28;1011;-50
2024/03/26 07:43:51;;;;;;;;;;;;;;;16.97;44.33;100618.16;5036759;28;1062;-50
2024/03/26 07:46:17;;;;;;;;;;;;;;;16.20;45.47;100612.34;5036728;28;1094;-51
2024/03/26 07:48:45;;;;;;;;;;;;;;;15.42;46.29;100612.53;5036866;28;1886;-51
2024/03/26 07:51:12;;;;;;;;;;;;;;;16.89;44.47;100617.88;5036444;28;1047;-50
2024/03/26 07:53:37;;;;;;;;;;;;;;;16.16;45.18;100611.72;5036497;28;1223;-53
2024/03/26 07:56:03;;;;;;;;;;;;;;;15.59;45.98;100613.13;5019251;28;1083;-54
2024/03/26 07:58:29;;;;;;;;;;;;;;;15.23;46.20;100620.94;5036486;28;1498;-52
2024/03/26 08:00:54;;;;;;;;;;;;;;;16.23;45.90;100608.63;5036467;28;2665;-57
2024/03/26 08:03:20;;;;;;;;;;;;;;;16.02;45.70;100610.09;5036866;28;1027;-51
2024/03/26 08:05:45;;;;;;;;;;;;;;;15.44;46.42;100607.97;5036849;28;1190;-51
2024/03/26 08:08:11;;;;;;;;;;;;;;;16.13;45.86;100606.63;5031995;28;1910;-54
2024/03/26 08:10:36;;;;;;;;;;;;;;;16.30;45.17;100609.84;5036628;28;1215;-52
2024/03/26 08:13:02;;;;;;;;;;;;;;;15.48;46.56;100614.72;5036003;28;988;-53
2024/03/26 08:15:28;;;;;;;;;;;;;;;15.20;46.14;100610.53;5035867;28;1048;-51
2024/03/26 08:17:54;;;;;;;;;;;;;;;15.10;45.72;100619.09;5036800;28;1056;-49
2024/03/26 08:20:19;;;;;;;;;;;;;;;15.72;46.18;100621.91;5029146;28;1337;-56
2024/03/26 08:22:45;;;;;;;;;;;;;;;16.44;44.84;100608.81;5022837;28;1139;-56
2024/03/26 08:25:11;;;;;;;;;;;;;;;15.46;46.55;100611.38;5029474;28;1268;-56
2024/03/26 08:27:39;;;;;;;;;;;;;;;16.14;45.93;100612.78;5035576;28;1902;-51
2024/03/26 08:30:10;;;;;;;;;;;;;;;15.80;46.20;100610.75;5034555;28;2662;-52
2024/03/26 08:32:36;;;;;;;;;;;;;;;15.39;46.52;100610.09;5025882;28;1304;-51
2024/03/26 08:35:01;;;;;;;;;;;;;;;16.92;44.32;100600.84;5037437;28;1097;-55
2024/03/26 08:37:27;;;;;;;;;;;;;;;15.85;45.84;100594.53;5027802;28;1024;-51
2024/03/26 08:39:53;;;;;;;;;;;;;;;15.34;46.46;100597.16;5031089;28;1623;-51
2024/03/26 08:42:18;;;;;;;;;;;;;;;15.40;47.07;100593.22;5037808;28;963;-54
2024/03/26 08:44:44;;;;;;;;;;;;;;;17.45;42.89;100595.00;5036350;28;1055;-55
2024/03/26 08:47:10;;;;;;;;;;;;;;;16.05;45.38;100585.13;5035263;28;1894;-54
2024/03/26 08:49:36;;;;;;;;;;;;;;;15.55;45.89;100591.28;5036012;28;1075;-54
2024/03/26 08:52:01;;;;;;;;;;;;;;;15.31;46.04;100586.78;5035660;28;1012;-52
2024/03/26 08:54:27;;;;;;;;;;;;;;;16.27;45.30;100579.06;5035799;28;1080;-53
2024/03/26 08:56:53;;;;;;;;;;;;;;;16.06;45.60;100588.63;5035952;28;1040;-55
2024/03/26 08:59:18;;;;;;;;;;;;;;;15.37;46.62;100566.94;5017682;28;2415;-54
2024/03/26 09:01:44;;;;;;;;;;;;;;;16.62;44.99;100568.56;5035763;28;1000;-52
2024/03/26 09:04:10;;;;;;;;;;;;;;;15.74;46.16;100574.06;5035602;28;1051;-54
2024/03/26 09:06:35;;;;;;;;;;;;;;;16.65;45.04;100558.56;5035863;28;1032;-53
2024/03/26 09:09:01;;;;;;;;;;;;;;;16.95;43.63;100558.13;5035873;28;1913;-53
2024/03/26 09:11:26;;;;;;;;;;;;;;;15.85;45.80;100537.00;5035758;28;1108;-56
2024/03/26 09:13:52;;;;;;;;;;;;;;;15.55;46.19;100541.78;5035790;28;1114;-51
2024/03/26 09:16:17;;;;;;;;;;;;;;;15.35;45.69;100545.00;5035103;28;1063;-54
2024/03/26 09:18:43;;;;;;;;;;;;;;;15.14;45.93;100538.47;5024785;28;1412;-55
2024/03/26 09:21:10;;;;;;;;;;;;;;;15.58;46.20;100543.34;5026474;28;1321;-53
2024/03/26 09:23:35;;;;;;;;;;;;;;;16.30;45.12;100532.03;5034043;28;1092;-54
2024/03/26 09:26:01;;;;;;;;;;;;;;;15.50;46.30;100543.91;5034831;28;974;-51
2024/03/26 09:28:28;;;;;;;;;;;;;;;15.90;46.21;100548.13;5035202;28;1993;-51
2024/03/26 09:30:53;;;;;;;;;;;;;;;16.38;45.14;100542.91;5035042;28;2870;-53
2024/03/26 09:33:19;;;;;;;;;;;;;;;15.60;46.37;100548.56;5035503;28;988;-52
2024/03/26 09:35:44;;;;;;;;;;;;;;;15.64;47.06;100548.22;5035212;28;1151;-51
2024/03/26 09:38:10;;;;;;;;;;;;;;;17.59;42.91;100547.84;5035038;28;1047;-53
2024/03/26 09:40:35;;;;;;;;;;;;;;;15.99;45.93;100549.28;5034940;28;1088;-54
2024/03/26 09:43:02;;;;;;;;;;;;;;;15.50;46.16;100541.25;5017500;28;1044;-55
2024/03/26 09:45:27;;;;;;;;;;;;;;;15.30;46.52;100550.63;5021707;28;1290;-51
2024/03/26 09:47:53;;;;;;;;;;;;;;;17.44;43.40;100540.13;5049444;28;1882;-48
2024/03/26 09:50:19;;;;;;;;;;;;;;;15.89;46.04;100537.63;5027672;28;1020;-51
2024/03/26 09:52:46;;;;;;;;;;;;;;;15.55;46.22;100536.47;5035318;28;1016;-51
2024/03/26 09:55:11;;;;;;;;;;;;;;;15.38;45.89;100531.53;5051027;28;1090;-55
2024/03/26 09:57:37;;;;;;;;;;;;;;;16.90;44.72;100550.50;5047379;28;1135;-56
2024/03/26 10:00:03;;;;;;;;;;;;;;;16.07;45.73;100546.06;5037898;28;2482;-50
2024/03/26 10:02:30;;;;;;;;;;;;;;;15.66;46.17;100551.59;5036955;28;1306;-55
2024/03/26 10:04:56;;;;;;;;;;;;;;;15.64;45.74;100552.66;5037962;28;1256;-51
2024/03/26 10:07:22;;;;;;;;;;;;;;;15.36;45.76;100533.44;5051420;28;1994;-58
2024/03/26 10:09:47;;;;;;;;;;;;;;;15.13;45.72;100550.00;5025405;28;1145;-58
2024/03/26 10:12:13;;;;;;;;;;;;;;;15.02;46.04;100534.88;5019310;28;1084;-55
2024/03/26 10:14:40;;;;;;;;;;;;;;;17.05;44.15;100543.13;5030551;28;1541;-56
2024/03/26 10:17:06;;;;;;;;;;;;;;;15.79;46.20;100542.75;5036661;28;1374;-57
2024/03/26 10:19:31;;;;;;;;;;;;;;;17.39;42.95;100539.66;5040099;28;1240;-61
2024/03/26 10:21:57;;;;;;;;;;;;;;;16.89;44.16;100536.38;5031840;28;1387;-55
2024/03/26 10:24:23;;;;;;;;;;;;;;;16.86;44.25;100557.88;5038842;28;1207;-58
2024/03/26 10:26:49;;;;;;;;;;;;;;;16.36;45.49;100540.38;5027906;28;1529;-61
2024/03/26 10:29:15;;;;;;;;;;;;;;;16.17;46.47;100554.19;5034647;28;2505;-61
2024/03/26 10:31:42;;;;;;;;;;;;;;;17.30;43.98;100538.56;5029159;28;1840;-62
2024/03/26 10:34:08;;;;;;;;;;;;;;;17.07;44.52;100551.84;5037817;28;1075;-63
2024/03/26 10:36:33;;;;;;;;;;;;;;;16.46;45.92;100534.38;5031173;28;1667;-54
2024/03/26 10:38:59;;;;;;;;;;;;;;;16.14;46.62;100534.03;5018374;28;980;-60
2024/03/26 10:41:29;;;;;;;;;;;;;;;17.08;44.98;100534.91;5037938;28;868;-62
2024/03/26 10:43:55;;;;;;;;;;;;;;;17.21;44.19;100544.63;5020248;28;1183;-58
2024/03/26 10:46:20;;;;;;;;;;;;;;;16.58;45.85;100549.34;5018839;28;1350;-59
2024/03/26 10:48:46;;;;;;;;;;;;;;;16.28;46.56;100551.56;5050393;28;1917;-60
2024/03/26 10:51:12;;;;;;;;;;;;;;;16.34;47.16;100544.97;5038229;28;937;-60
2024/03/26 10:53:38;;;;;;;;;;;;;;;17.73;43.68;100550.22;5037634;28;1093;-60
2024/03/26 10:56:04;;;;;;;;;;;;;;;16.94;45.24;100567.91;5037888;28;1000;-61
2024/03/26 10:58:29;;;;;;;;;;;;;;;16.42;46.46;100560.28;5038093;28;1067;-62
2024/03/26 11:00:55;;;;;;;;;;;;;;;16.20;47.12;100561.06;5020014;28;2613;-61
2024/03/26 11:03:21;;;;;;;;;;;;;;;17.52;44.26;100554.66;5019908;28;1051;-61
2024/03/26 11:05:46;;;;;;;;;;;;;;;16.98;45.17;100548.06;5036791;28;1690;-63
2024/03/26 11:08:16;;;;;;;;;;;;;;;16.45;46.79;100538.81;5052309;28;1914;-62
2024/03/26 11:10:56;;;;;;;;;;;;;;;16.15;47.69;100541.03;5028830;28;1111;-60
2024/03/26 11:13:28;;;;;;;;;;;;;;;17.44;44.78;100537.47;5028499;28;1139;-61
2024/03/26 11:15:54;;;;;;;;;;;;;;;16.99;45.59;100533.84;5037056;28;1363;-56
2024/03/26 11:18:29;;;;;;;;;;;;;;;16.43;46.98;100521.31;5033131;28;1343;-57
2024/03/26 11:21:10;;;;;;;;;;;;;;;16.15;47.68;100530.41;5029543;28;1381;-56
2024/03/26 11:23:37;;;;;;;;;;;;;;;16.82;46.37;100535.16;5022128;28;1240;-57
2024/03/26 11:26:03;;;;;;;;;;;;;;;17.36;44.88;100526.59;5023049;28;1279;-57
2024/03/26 11:28:32;;;;;;;;;;;;;;;16.57;46.94;100531.72;5035814;28;1910;-61
2024/03/26 11:30:58;;;;;;;;;;;;;;;16.24;47.47;100523.56;5027929;28;2807;-55
2024/03/26 11:33:27;;;;;;;;;;;;;;;16.37;47.51;100523.47;5023344;28;1170;-56
2024/03/26 11:35:54;;;;;;;;;;;;;;;17.69;44.51;100511.56;5036621;28;1253;-56
2024/03/26 11:38:20;;;;;;;;;;;;;;;16.81;46.40;100522.84;5016253;28;1322;-55
2024/03/26 11:40:49;;;;;;;;;;;;;;;16.36;47.46;100519.16;5033985;28;977;-58
2024/03/26 11:43:14;;;;;;;;;;;;;;;16.10;48.16;100513.97;5036713;28;1153;-56
2024/03/26 11:45:40;;;;;;;;;;;;;;;17.02;46.45;100515.00;5033655;28;1473;-59
2024/03/26 11:48:06;;;;;;;;;;;;;;;17.84;44.07;100508.59;5036620;28;1999;-61
2024/03/26 11:50:31;;;;;;;;;;;;;;;17.04;45.50;100501.59;5033841;28;1307;-55
2024/03/26 11:52:57;;;;;;;;;;;;;;;16.70;46.94;100498.94;5033975;28;1339;-54
2024/03/26 11:55:22;;;;;;;;;;;;;;;17.96;44.26;100499.59;5040056;28;1007;-58
2024/03/26 11:57:47;;;;;;;;;;;;;;;17.33;45.42;100487.81;5036923;28;1107;-55
2024/03/26 12:00:13;;;;;;;;;;;;;;;16.82;46.85;100491.78;5020971;28;2433;-58
2024/03/26 12:02:40;;;;;;;;;;;;;;;16.73;46.93;100496.03;5047806;28;1106;-61
2024/03/26 12:05:05;;;;;;;;;;;;;;;17.29;46.57;100486.38;5036410;28;1205;-56
2024/03/26 12:07:31;;;;;;;;;;;;;;;16.42;48.05;100491.25;5036602;28;1914;-57
2024/03/26 12:09:56;;;;;;;;;;;;;;;15.69;49.13;100494.00;5052009;28;1095;-56
2024/03/26 12:12:21;;;;;;;;;;;;;;;15.63;48.40;100490.81;5019259;28;1095;-54
2024/03/26 12:14:48;;;;;;;;;;;;;;;15.40;48.39;100485.41;5036221;28;1040;-57
2024/03/26 12:17:14;;;;;;;;;;;;;;;15.50;47.60;100485.56;5036523;28;1151;-57
2024/03/26 12:19:43;;;;;;;;;;;;;;;15.36;47.46;100480.44;5035536;28;1135;-58
2024/03/26 12:22:12;;;;;;;;;;;;;;;15.18;47.35;100486.09;5034551;28;1584;-58
2024/03/26 12:24:38;;;;;;;;;;;;;;;15.08;47.06;100485.88;5051330;28;1177;-58
2024/03/26 12:27:04;;;;;;;;;;;;;;;14.93;46.86;100478.09;5037412;28;1138;-57
2024/03/26 12:29:30;;;;;;;;;;;;;;;14.84;46.65;100478.75;5034758;28;1910;-55
2024/03/26 12:31:56;;;;;;;;;;;;;;;14.83;46.71;100469.09;5035750;28;987;-57
2024/03/26 12:34:21;;;;;;;;;;;;;;;15.46;48.39;100485.91;5018906;28;1115;-58
2024/03/26 12:36:47;;;;;;;;;;;;;;;16.24;48.75;100474.94;5036633;28;1250;-59
2024/03/26 12:39:13;;;;;;;;;;;;;;;15.31;49.60;100475.47;5048182;28;1078;-57
2024/03/26 12:41:38;;;;;;;;;;;;;;;15.12;49.03;100475.94;5035821;28;1071;-58